Latest Weather Observations for Hopetoun Airport

IDV60801

Issued at 11:22 pm EST Friday 23 April 2021 (issued every 10 minutes, with the page automatically refreshed every 10 minutes)

About weather observations | Map of weather stations | Latest weather observations for VIC | Other Formats
Station Details ID: 077010 Name: HOPETOUN AIRPORT Lat: -35.72 Lon: 142.36 Height: 77.3 m
Data from the previous 72 hours. | See also: Recent months at Hopetoun Airport
Date/Time
EST
Temp
°C
App
Temp
°C
Dew
Point
°C
Rel
Hum
%
Delta-T
°C
Wind Press
QNH
hPa
Press
MSL
hPa
Rain since
9am
mm
Dir  Spd
km/h
Gust
km/h
Spd
kts
Gust
kts
23/11:00pm 10.4 8.2 5.4 71 2.3 W 6 7 3 4 1023.2 1023.1 0.0
23/10:30pm 10.3 8.0 4.9 69 2.4 W 6 6 3 3 1023.1 1023.0 0.0
23/10:00pm 11.5 9.6 4.7 63 3.1 SW 4 6 2 3 1023.0 1022.9 0.0
23/09:30pm 13.1 11.1 6.2 63 3.3 SW 6 6 3 3 1022.8 1022.7 0.0
23/09:00pm 12.8 10.6 5.5 61 3.4 SW 6 7 3 4 1022.6 1022.5 0.0
23/08:30pm 14.0 11.9 5.6 57 4.0 SW 6 6 3 3 1022.5 1022.4 0.0
23/08:00pm 14.6 12.4 6.2 57 4.0 SW 7 7 4 4 1022.3 1022.2 0.0
23/07:30pm 14.9 12.8 6.0 55 4.3 SW 6 6 3 3 1022.0 1021.9 0.0
23/07:00pm 15.3 13.6 6.1 54 4.4 WSW 4 6 2 3 1021.6 1021.5 0.0
23/06:30pm 15.6 13.4 6.3 54 4.5 WSW 7 9 4 5 1021.1 1021.0 0.0
23/06:00pm 16.5 13.5 6.1 50 5.1 WSW 11 13 6 7 1020.8 1020.7 0.0
23/05:30pm 17.5 14.2 6.4 48 5.5 WSW 13 19 7 10 1020.6 1020.5 0.0
23/05:00pm 17.9 14.2 6.4 47 5.7 WSW 15 22 8 12 1020.4 1020.3 0.0
23/04:30pm 18.0 13.6 6.5 47 5.7 SW 19 24 10 13 1020.3 1020.2 0.0
23/04:00pm 18.9 15.4 7.0 46 6.0 WSW 15 20 8 11 1020.1 1020.0 0.0
23/03:30pm 18.1 13.8 7.2 49 5.5 SW 19 24 10 13 1020.2 1020.1 0.0
23/03:00pm 18.4 14.5 6.9 47 5.8 WSW 17 26 9 14 1020.1 1020.0 0.0
23/02:30pm 18.0 13.5 7.1 49 5.5 SW 20 30 11 16 1020.1 1020.0 0.0
23/02:00pm 18.0 13.6 6.5 47 5.7 SW 19 28 10 15 1020.0 1019.9 0.0
23/01:30pm 18.0 13.7 6.8 48 5.6 SW 19 28 10 15 1020.2 1020.1 0.0
23/01:00pm 18.9 14.7 7.4 47 5.8 SW 19 28 10 15 1020.4 1020.3 0.0
23/12:30pm 17.4 13.4 6.6 49 5.4 SW 17 28 9 15 1020.8 1020.7 0.0
23/12:00pm 17.2 12.4 7.3 52 5.0 SW 22 30 12 16 1021.3 1021.2 0.0
23/11:30am 16.9 12.7 7.3 53 4.8 WSW 19 26 10 14 1021.4 1021.3 0.0
23/11:00am 16.3 12.6 9.3 63 3.6 WSW 19 24 10 13 1021.5 1021.4 0.0
23/10:30am 16.4 14.0 10.0 66 3.4 SW 13 20 7 11 1021.7 1021.6 0.0
23/10:00am 15.2 13.1 11.2 77 2.1 WSW 13 20 7 11 1021.7 1021.6 0.0
23/09:30am 14.0 12.0 11.5 85 1.3 WSW 13 17 7 9 1021.6 1021.5 0.0
23/09:00am 12.7 11.3 12.1 96 0.3 WSW 11 15 6 8 1021.5 1021.4 0.0
23/08:30am 12.1 10.2 11.8 98 0.2 WSW 13 17 7 9 1021.2 1021.1 0.0
23/08:00am 11.2 9.4 11.0 99 0.1 W 11 15 6 8 1020.7 1020.6 0.0
23/07:30am 10.9 9.8 10.7 99 0.1 W 7 11 4 6 1020.3 1020.2 0.0
23/07:00am 10.9 9.0 10.6 98 0.2 W 11 15 6 8 1020.0 1019.9 0.0
23/06:30am 10.8 9.3 10.5 98 0.2 W 9 11 5 6 1019.7 1019.6 0.0
23/06:00am 11.0 9.2 10.7 98 0.2 W 11 15 6 8 1019.5 1019.4 0.0
23/05:30am 10.8 8.9 10.6 99 0.1 WNW 11 13 6 7 1019.1 1019.0 0.0
23/05:00am 9.8 8.4 9.7 99 0.1 WSW 7 9 4 5 1019.0 1018.9 0.0
23/04:30am 8.4 6.3 8.1 98 0.1 NW 9 9 5 5 1018.7 1018.6 0.0
23/04:00am 7.2 4.7 6.6 96 0.3 WNW 9 11 5 6 1018.6 1018.5 0.0
23/03:30am 8.0 5.7 7.4 96 0.3 WNW 9 13 5 7 1018.5 1018.4 0.0
23/03:00am 7.6 4.4 7.0 96 0.3 WNW 13 13 7 7 1018.4 1018.3 0.0
23/02:30am 7.1 4.5 6.0 93 0.5 WNW 9 9 5 5 1018.7 1018.6 0.0
23/02:00am 8.2 5.8 7.0 92 0.6 W 9 11 5 6 1018.6 1018.5 0.0
23/01:30am 9.4 6.9 8.0 91 0.7 W 11 13 6 7 1018.5 1018.4 0.0
23/01:00am 9.1 6.4 7.4 89 0.8 W 11 13 6 7 1018.4 1018.3 0.0
23/12:30am 9.0 6.5 6.4 84 1.2 W 9 11 5 6 1018.5 1018.4 0.0
23/12:00am 10.9 8.3 7.8 81 1.5 W 11 13 6 7 1018.5 1018.4 0.0
 
Date/Time
EST
Temp
°C
App
Temp
°C
Dew
Point
°C
Rel
Hum
%
Delta-T
°C
Wind Press
QNH
hPa
Press
MSL
hPa
Rain since
9am
mm
Dir  Spd
km/h
Gust
km/h
Spd
kts
Gust
kts
22/11:30pm 12.5 9.2 8.2 75 2.1 W 15 19 8 10 1018.6 1018.5 0.0
22/11:00pm 14.0 10.4 8.2 68 2.9 WSW 17 24 9 13 1018.8 1018.7 0.0
22/10:30pm 14.2 11.3 8.2 67 3.0 WSW 13 19 7 10 1018.7 1018.6 0.0
22/10:00pm 14.4 11.1 8.1 66 3.1 W 15 20 8 11 1018.7 1018.6 0.0
22/09:30pm 14.6 11.6 7.9 64 3.3 W 13 17 7 9 1018.4 1018.3 0.0
22/09:00pm 14.8 11.8 7.8 63 3.5 W 13 15 7 8 1018.3 1018.2 0.0
22/08:30pm 15.1 11.7 7.6 61 3.7 WSW 15 19 8 10 1018.2 1018.1 0.0
22/08:00pm 15.4 11.6 7.7 60 3.8 WSW 17 24 9 13 1017.9 1017.8 0.0
22/07:30pm 15.4 11.6 7.7 60 3.9 WSW 17 22 9 12 1017.6 1017.5 0.0
22/07:00pm 15.6 11.9 7.9 60 3.9 WSW 17 22 9 12 1017.3 1017.2 0.0
22/06:30pm 16.1 11.0 7.6 57 4.3 WSW 24 32 13 17 1016.8 1016.7 0.0
22/06:00pm 16.3 11.9 7.5 56 4.4 W 20 28 11 15 1016.3 1016.1 0.0
22/05:30pm 16.9 12.0 7.0 52 4.9 WSW 22 32 12 17 1015.9 1015.8 0.0
22/05:00pm 17.0 11.3 6.5 50 5.2 WSW 26 32 14 17 1015.6 1015.5 0.0
22/04:30pm 17.4 11.4 6.9 50 5.2 WSW 28 41 15 22 1015.6 1015.5 0.0
22/04:00pm 17.9 11.4 6.4 47 5.7 WSW 30 41 16 22 1015.3 1015.2 0.0
22/03:30pm 18.6 13.7 5.1 41 6.6 WSW 20 26 11 14 1014.9 1014.8 0.0
22/03:00pm 18.8 13.8 6.3 44 6.2 WSW 22 30 12 16 1014.7 1014.6 0.0
22/02:30pm 18.5 13.0 5.7 43 6.3 SW 24 33 13 18 1014.7 1014.6 0.0
22/02:00pm 18.1 11.3 5.3 43 6.2 SW 30 41 16 22 1014.9 1014.8 0.0
22/01:30pm 16.9 10.1 6.7 51 5.1 W 32 41 17 22 1015.0 1014.9 0.0
22/01:00pm 17.9 12.9 6.4 47 5.7 WSW 22 32 12 17 1015.2 1015.1 0.0
22/12:30pm 17.6 12.5 6.2 47 5.6 W 22 32 12 17 1015.5 1015.4 0.0
22/12:00pm 17.0 13.1 8.7 58 4.3 W 19 26 10 14 1015.8 1015.7 0.0
22/11:30am 15.0 9.4 8.7 66 3.2 WSW 28 37 15 20 1016.1 1016.0 0.0
22/11:00am 17.0 12.5 8.4 57 4.4 WSW 22 28 12 15 1015.8 1015.7 0.0
22/10:30am 16.8 12.4 9.0 60 4.0 WSW 22 30 12 16 1016.0 1015.9 0.0
22/10:00am 15.2 10.3 8.4 64 3.4 W 24 32 13 17 1015.9 1015.8 0.0
22/09:30am 14.6 10.5 8.5 67 3.1 WNW 20 26 11 14 1015.7 1015.6 0.0
22/09:00am 14.0 9.5 8.6 70 2.7 W 22 28 12 15 1015.8 1015.7 0.0
22/08:30am 12.4 7.7 5.3 62 3.3 WNW 19 24 10 13 1015.7 1015.6 0.0
22/08:00am 11.2 6.5 3.0 57 3.6 NW 17 22 9 12 1015.3 1015.2 0.0
22/07:30am 10.4 6.3 2.5 58 3.4 NW 13 19 7 10 1015.1 1015.0 0.0
22/07:00am 9.8 6.1 2.2 59 3.2 NW 11 15 6 8 1014.8 1014.7 0.0
22/06:30am 9.1 5.7 1.8 60 3.0 NNW 9 9 5 5 1014.8 1014.7 0.0
22/06:00am 9.6 5.8 1.8 58 3.3 NW 11 13 6 7 1014.8 1014.7 0.0
22/05:30am 8.9 5.8 1.6 60 3.0 NW 7 7 4 4 1014.9 1014.8 0.0
22/05:00am 9.0 6.0 1.7 60 3.0 NNW 7 9 4 5 1014.8 1014.7 0.0
22/04:30am 8.6 5.2 2.0 63 2.8 NNW 9 11 5 6 1014.6 1014.5 0.0
22/04:00am 8.8 5.8 1.9 62 2.9 WNW 7 9 4 5 1014.8 1014.7 0.0
22/03:30am 10.0 6.8 3.1 62 3.0 WNW 9 9 5 5 1015.0 1014.9 0.0
22/03:00am 10.3 6.9 1.7 55 3.6 NW 9 13 5 7 1015.3 1015.2 0.0
22/02:30am 10.4 7.4 2.0 56 3.6 NW 7 7 4 4 1015.7 1015.6 0.0
22/02:00am 10.5 7.5 2.1 56 3.6 NW 7 9 4 5 1015.7 1015.6 0.0
22/01:30am 10.5 7.1 2.1 56 3.6 NW 9 11 5 6 1016.1 1016.0 0.0
22/01:00am 10.3 7.4 2.7 59 3.3 NW 7 9 4 5 1016.0 1015.9 0.0
22/12:30am 9.8 7.1 2.4 60 3.2 NNW 6 6 3 3 1016.3 1016.1 0.0
22/12:00am 10.2 7.2 2.3 58 3.4 NNW 7 9 4 5 1016.4 1016.2 0.0
 
Date/Time
EST
Temp
°C
App
Temp
°C
Dew
Point
°C
Rel
Hum
%
Delta-T
°C
Wind Press
QNH
hPa
Press
MSL
hPa
Rain since
9am
mm
Dir  Spd
km/h
Gust
km/h
Spd
kts
Gust
kts
21/11:30pm 10.8 7.5 2.4 56 3.6 N 9 11 5 6 1016.7 1016.5 0.0
21/11:00pm 10.7 7.4 2.5 57 3.5 N 9 11 5 6 1017.1 1017.0 0.0
21/10:30pm 10.6 7.3 2.7 58 3.4 N 9 9 5 5 1017.5 1017.4 0.0
21/10:00pm 10.6 7.8 3.2 60 3.2 N 7 7 4 4 1017.6 1017.5 0.0
21/09:30pm 10.2 7.0 2.8 60 3.2 NNW 9 9 5 5 1017.8 1017.7 0.0
21/09:00pm 11.2 8.4 3.3 58 3.5 NNW 7 9 4 5 1017.6 1017.5 0.0
21/08:30pm 11.2 8.9 3.0 57 3.6 WSW 4 4 2 2 1017.6 1017.5 0.0
21/08:00pm 12.1 9.4 2.8 53 4.1 SSW 6 6 3 3 1017.5 1017.4 0.0
21/07:30pm 12.4 9.5 2.6 51 4.3 SSW 7 9 4 5 1017.5 1017.4 0.0
21/07:00pm 12.5 9.2 2.4 50 4.4 SSW 9 11 5 6 1017.2 1017.1 0.0
21/06:30pm 11.8 7.7 2.0 51 4.2 SW 13 17 7 9 1017.1 1017.0 0.0
21/06:00pm 13.0 9.1 1.0 44 5.1 SW 11 13 6 7 1016.7 1016.5 0.0
21/05:30pm 14.9 10.2 0.7 38 6.1 SW 15 19 8 10 1016.6 1016.4 0.0
21/05:00pm 15.7 10.6 0.7 36 6.5 WSW 17 26 9 14 1016.5 1016.3 0.0
21/04:30pm 16.1 11.4 0.7 35 6.7 WSW 15 30 8 16 1016.6 1016.4 0.0
21/04:00pm 16.3 12.3 0.8 35 6.8 W 11 20 6 11 1016.5 1016.3 0.0
21/03:30pm 16.1 11.3 0.3 34 6.8 W 15 26 8 14 1016.7 1016.5 0.0
21/03:00pm 15.8 10.6 0.4 35 6.6 WSW 17 30 9 16 1017.1 1017.0 0.0
21/02:30pm 15.1 11.1 0.5 37 6.3 WSW 11 20 6 11 1017.2 1017.1 0.0
21/02:00pm 15.1 10.3 0.5 37 6.2 SW 15 22 8 12 1017.4 1017.3 0.0
21/01:30pm 14.4 9.9 -0.1 37 6.1 W 13 22 7 12 1018.0 1017.9 0.0
21/01:00pm 14.1 10.5 0.7 40 5.7 SW 9 19 5 10 1018.5 1018.4 0.0
21/12:30pm 14.0 10.1 1.3 42 5.5 W 11 24 6 13 1019.0 1018.9 0.0
21/12:00pm 13.0 9.8 0.7 43 5.2 SSW 7 13 4 7 1019.6 1019.5 0.0
21/11:30am 13.0 10.2 2.3 48 4.7 SSW 6 11 3 6 1019.9 1019.8 0.0
21/11:00am 12.2 9.8 2.4 51 4.3 SSW 4 13 2 7 1020.3 1020.2 0.0
21/10:30am 11.6 9.2 4.3 61 3.3 SW 6 11 3 6 1020.8 1020.7 0.0
21/10:00am 10.7 8.5 5.5 70 2.4 WSW 6 9 3 5 1020.9 1020.8 0.0
21/09:30am 8.9 6.7 5.5 79 1.5 SW 6 7 3 4 1021.0 1020.9 0.0
21/09:00am 6.9 4.7 5.4 90 0.7 WSW 6 7 3 4 1021.0 1020.9 2.8
21/08:30am 4.7 2.6 4.0 95 0.3 W 4 6 2 3 1020.8 1020.7 2.8
21/08:00am 2.3 -0.8 1.6 95 0.3 WNW 7 9 4 5 1020.6 1020.5 2.8
21/07:30am -0.5 -3.1 -1.5 93 0.3 NW 2 4 1 2 1020.1 1020.0 2.8
21/07:00am -1.5 -4.3 -3.1 89 0.5 SW 2 6 1 3 1019.8 1019.7 2.8
21/06:30am 0.8 -1.3 -0.6 90 0.5 CALM 0 0 0 0 1019.6 1019.5 2.8
21/06:00am 3.1 -0.3 1.8 91 0.5 S 9 11 5 6 1019.4 1019.3 2.8
21/05:30am 2.3 -0.8 1.1 92 0.5 S 7 13 4 7 1019.0 1018.9 2.8
21/05:00am 2.4 -0.8 0.9 90 0.6 SSW 7 9 4 5 1019.2 1019.1 2.8
21/04:30am 2.4 -0.5 1.2 92 0.5 S 6 11 3 6 1019.1 1019.0 2.8
21/04:00am 0.6 -2.3 -0.8 90 0.5 SSW 4 6 2 3 1019.0 1018.9 2.8
21/03:30am 1.9 -1.4 0.4 90 0.6 SSW 7 9 4 5 1019.4 1019.3 2.8
21/03:00am 1.4 -0.6 -0.1 90 0.5 CALM 0 0 0 0 1019.4 1019.3 2.8
21/02:30am 2.1 -1.1 0.5 89 0.6 SSW 7 9 4 5 1019.6 1019.5 2.8
21/02:00am 2.9 0.0 1.3 89 0.6 SSW 6 7 3 4 1019.6 1019.5 2.6
21/01:30am 3.2 -0.3 1.4 88 0.7 SSW 9 13 5 7 1019.6 1019.5 2.6
21/01:00am 4.3 1.4 2.7 89 0.6 SSW 7 9 4 5 1019.6 1019.5 2.6
21/12:30am 4.1 0.7 2.0 86 0.8 SSW 9 11 5 6 1019.3 1019.2 2.6
21/12:00am 4.1 0.3 1.8 85 0.9 SSW 11 13 6 7 1019.4 1019.3 2.6
 
Date/Time
EST
Temp
°C
App
Temp
°C
Dew
Point
°C
Rel
Hum
%
Delta-T
°C
Wind Press
QNH
hPa
Press
MSL
hPa
Rain since
9am
mm
Dir  Spd
km/h
Gust
km/h
Spd
kts
Gust
kts
20/11:30pm 5.6 2.4 3.1 84 1.0 SSW 9 11 5 6 1019.5 1019.4 2.6

Other formats

Comma delimited format used in spreadsheet applications
http://www.bom.gov.au/fwo/IDV60801/IDV60801.94838.axf

JavaScript Object Notation format (JSON) in row-major order
http://www.bom.gov.au/fwo/IDV60801/IDV60801.94838.json

Data quality

Most of these data are generated automatically and are frequently updated. Quality checks on data are not normally performed. It is possible for incorrect values to appear. Refer to information at About Latest Weather Observations and please check the disclaimer before using these data.